createdAt,value
2023-03-31T00:00:00.522Z,4.5
2023-03-31T00:01:00.559Z,4.5
2023-03-31T00:02:02.046Z,4.5
2023-03-31T00:03:00.665Z,4.6
2023-03-31T00:04:01.657Z,4.6
2023-03-31T00:05:00.617Z,4.6
2023-03-31T00:06:00.559Z,4.6
2023-03-31T00:07:00.530Z,4.6
2023-03-31T00:08:00.508Z,4.6
2023-03-31T00:09:00.576Z,4.6
2023-03-31T00:10:10.755Z,4.6
2023-03-31T00:11:01.966Z,4.6
2023-03-31T00:12:00.556Z,4.6
2023-03-31T00:13:00.972Z,4.9
2023-03-31T00:14:00.747Z,4.9
2023-03-31T00:15:00.715Z,4.9
2023-03-31T00:16:04.764Z,4.9
2023-03-31T00:17:00.550Z,4.9
2023-03-31T00:18:00.747Z,4.6
2023-03-31T00:19:00.743Z,4.6
2023-03-31T00:20:00.524Z,4.6
2023-03-31T00:21:11.560Z,4.6
2023-03-31T00:22:00.524Z,4.6
2023-03-31T00:23:00.502Z,4.7
2023-03-31T00:24:02.405Z,4.7
2023-03-31T00:25:00.508Z,4.7
2023-03-31T00:26:00.668Z,4.7
2023-03-31T00:27:03.080Z,4.7
2023-03-31T00:28:00.502Z,4.7
2023-03-31T00:29:01.545Z,4.7
2023-03-31T00:30:00.510Z,4.7
2023-03-31T00:31:02.265Z,4.7
2023-03-31T00:32:00.794Z,4.7
2023-03-31T00:33:00.671Z,4.7
2023-03-31T00:34:00.831Z,4.7
2023-03-31T00:35:00.495Z,4.7
2023-03-31T00:36:00.528Z,4.7
2023-03-31T00:37:00.529Z,4.7
2023-03-31T00:38:00.497Z,5.0
2023-03-31T00:39:02.769Z,5.0
2023-03-31T00:40:00.733Z,5.0
2023-03-31T00:41:01.504Z,5.0
2023-03-31T00:42:02.810Z,5.0
2023-03-31T00:43:00.502Z,4.5
2023-03-31T00:44:08.844Z,4.5
2023-03-31T00:45:13.705Z,4.5
2023-03-31T00:46:09.314Z,4.5
2023-03-31T00:47:09.328Z,4.5
2023-03-31T00:48:05.239Z,5.2
2023-03-31T00:49:01.318Z,5.2
2023-03-31T00:50:00.969Z,5.2
2023-03-31T00:51:05.443Z,5.2
2023-03-31T00:52:08.078Z,5.2
2023-03-31T00:53:07.471Z,4.8
2023-03-31T00:54:04.930Z,4.8
2023-03-31T00:55:07.927Z,4.8
2023-03-31T00:56:05.714Z,4.8
2023-03-31T00:57:01.957Z,4.8
2023-03-31T00:58:01.527Z,4.6
2023-03-31T00:59:02.658Z,4.6
2023-03-31T01:00:04.894Z,4.6
2023-03-31T01:01:02.176Z,4.6
2023-03-31T01:02:01.792Z,4.6
2023-03-31T01:03:05.206Z,4.9
2023-03-31T01:04:02.561Z,4.9
2023-03-31T01:05:00.590Z,4.9
2023-03-31T01:06:04.710Z,4.9
2023-03-31T01:07:10.435Z,4.9
2023-03-31T01:08:01.227Z,4.7
2023-03-31T01:09:02.103Z,4.7
2023-03-31T01:10:02.693Z,4.7
2023-03-31T01:11:04.279Z,4.7
2023-03-31T01:12:03.525Z,4.7
2023-03-31T01:13:00.584Z,5.1
2023-03-31T01:14:00.824Z,5.1
2023-03-31T01:15:02.690Z,5.1
2023-03-31T01:16:00.968Z,5.1
2023-03-31T01:17:00.709Z,5.1
2023-03-31T01:18:01.134Z,4.8
2023-03-31T01:19:00.616Z,4.8
2023-03-31T01:20:08.291Z,4.8
2023-03-31T01:21:11.484Z,4.8
2023-03-31T01:22:07.771Z,4.8
2023-03-31T01:23:11.493Z,4.7
2023-03-31T01:24:19.679Z,4.7
2023-03-31T01:25:20.404Z,4.7
2023-03-31T01:26:20.400Z,4.7
2023-03-31T01:27:13.728Z,4.7
2023-03-31T01:28:07.950Z,4.6
2023-03-31T01:29:20.422Z,4.6
2023-03-31T01:30:17.804Z,4.6
2023-03-31T01:31:20.509Z,4.6
2023-03-31T01:32:20.403Z,4.6
2023-03-31T01:33:20.399Z,4.6
2023-03-31T01:34:20.405Z,4.6
2023-03-31T01:35:16.541Z,4.6
2023-03-31T01:36:20.398Z,4.6
2023-03-31T01:37:03.762Z,4.6
2023-03-31T01:38:01.492Z,5.4
2023-03-31T01:39:20.195Z,5.4
2023-03-31T01:40:09.585Z,5.4
2023-03-31T01:41:20.445Z,5.4
2023-03-31T01:42:13.991Z,5.3
2023-03-31T01:43:16.706Z,5.3
2023-03-31T01:44:07.889Z,5.3
2023-03-31T01:45:20.410Z,5.3
2023-03-31T01:46:09.836Z,5.3
2023-03-31T01:47:09.171Z,5.3
2023-03-31T01:48:00.501Z,5.8
2023-03-31T01:49:13.702Z,5.8
2023-03-31T01:50:05.523Z,5.8
2023-03-31T01:51:05.332Z,5.8
2023-03-31T01:52:20.484Z,5.6
2023-03-31T01:53:08.167Z,5.6
2023-03-31T01:54:15.846Z,5.6
2023-03-31T01:55:14.958Z,5.6
2023-03-31T01:56:09.541Z,5.6
2023-03-31T01:57:12.578Z,6.3
2023-03-31T01:58:14.112Z,6.3
2023-03-31T01:59:06.210Z,6.3
2023-03-31T02:00:04.255Z,6.3
2023-03-31T02:01:08.880Z,6.3
2023-03-31T02:02:08.725Z,6.3
2023-03-31T02:03:15.133Z,6.4
2023-03-31T02:04:07.633Z,6.4
2023-03-31T02:05:08.461Z,6.4
2023-03-31T02:06:10.609Z,6.4
2023-03-31T02:07:13.510Z,6.5
2023-03-31T02:08:06.707Z,6.5
2023-03-31T02:09:05.436Z,6.5
2023-03-31T02:10:05.351Z,6.5
2023-03-31T02:11:01.777Z,6.5
2023-03-31T02:12:04.527Z,6.5
2023-03-31T02:13:02.545Z,6.9
2023-03-31T02:14:04.429Z,6.9
2023-03-31T02:15:06.235Z,6.9
2023-03-31T02:16:05.971Z,6.9
2023-03-31T02:17:01.157Z,6.9
2023-03-31T02:18:03.434Z,6.6
2023-03-31T02:19:04.336Z,6.6
2023-03-31T02:20:06.922Z,6.6
2023-03-31T02:21:00.682Z,6.6
2023-03-31T02:22:02.940Z,6.6
2023-03-31T02:23:01.467Z,7.0
2023-03-31T02:24:04.452Z,7.0
2023-03-31T02:25:05.113Z,7.0
2023-03-31T02:26:06.246Z,7.0
2023-03-31T02:27:09.790Z,7.5
2023-03-31T02:28:07.008Z,7.5
2023-03-31T02:29:01.273Z,7.5
2023-03-31T02:30:01.518Z,7.5
2023-03-31T02:31:01.593Z,7.5
2023-03-31T02:32:06.671Z,7.5
2023-03-31T02:33:00.623Z,7.5
2023-03-31T02:34:00.581Z,7.5
2023-03-31T02:35:01.228Z,7.5
2023-03-31T02:36:01.801Z,7.5
2023-03-31T02:37:00.837Z,7.5
2023-03-31T02:38:00.666Z,7.6
2023-03-31T02:39:05.648Z,7.6
2023-03-31T02:40:06.275Z,7.6
2023-03-31T02:41:00.642Z,7.6
2023-03-31T02:42:02.101Z,7.6
2023-03-31T02:43:00.773Z,7.3
2023-03-31T02:44:00.586Z,7.3
2023-03-31T02:45:01.256Z,7.3
2023-03-31T02:46:00.605Z,7.3
2023-03-31T02:47:03.878Z,7.3
2023-03-31T02:48:00.641Z,8.0
2023-03-31T02:49:03.929Z,8.0
2023-03-31T02:50:03.327Z,8.0
2023-03-31T02:51:11.967Z,8.0
2023-03-31T02:52:10.820Z,8.3
2023-03-31T02:53:09.115Z,8.3
2023-03-31T02:54:19.085Z,8.3
2023-03-31T02:55:14.776Z,8.3
2023-03-31T02:56:11.520Z,8.3
2023-03-31T02:57:11.562Z,8.4
2023-03-31T02:58:15.818Z,8.4
2023-03-31T02:59:11.386Z,8.4
2023-03-31T03:00:17.905Z,8.4
2023-03-31T03:01:10.499Z,8.4
2023-03-31T03:02:13.792Z,8.7
2023-03-31T03:03:17.582Z,8.7
2023-03-31T03:04:12.635Z,8.7
2023-03-31T03:05:20.525Z,8.7
2023-03-31T03:06:03.856Z,8.7
2023-03-31T03:07:11.268Z,8.6
2023-03-31T03:08:14.485Z,8.6
2023-03-31T03:09:02.556Z,8.6
2023-03-31T03:10:08.581Z,8.6
2023-03-31T03:11:06.748Z,8.6
2023-03-31T03:12:11.525Z,9.1
2023-03-31T03:13:17.630Z,9.1
2023-03-31T03:14:17.767Z,9.1
2023-03-31T03:15:06.408Z,9.1
2023-03-31T03:16:06.593Z,9.1
2023-03-31T03:17:07.469Z,9.0
2023-03-31T03:18:02.749Z,9.0
2023-03-31T03:19:03.575Z,9.0
2023-03-31T03:20:03.680Z,9.0
2023-03-31T03:21:00.519Z,9.0
2023-03-31T03:22:00.548Z,9.1
2023-03-31T03:23:01.346Z,9.1
2023-03-31T03:24:00.562Z,9.1
2023-03-31T03:25:00.821Z,9.1
2023-03-31T03:26:00.642Z,9.1
2023-03-31T03:27:00.523Z,9.7
2023-03-31T03:28:00.518Z,9.7
2023-03-31T03:29:00.524Z,9.7
2023-03-31T03:30:01.405Z,9.7
2023-03-31T03:31:00.550Z,9.7
2023-03-31T03:32:00.500Z,8.8
2023-03-31T03:33:00.898Z,8.8
2023-03-31T03:34:00.580Z,8.8
2023-03-31T03:35:01.317Z,8.8
2023-03-31T03:36:00.619Z,8.8
2023-03-31T03:37:00.509Z,9.1
2023-03-31T03:38:00.521Z,9.1
2023-03-31T03:39:00.829Z,9.1
2023-03-31T03:40:00.560Z,9.1
2023-03-31T03:41:00.706Z,9.1
2023-03-31T03:42:00.511Z,8.8
2023-03-31T03:43:00.538Z,8.8
2023-03-31T03:44:00.508Z,8.8
2023-03-31T03:45:00.971Z,8.8
2023-03-31T03:46:00.629Z,8.8
2023-03-31T03:47:00.499Z,9.3
2023-03-31T03:48:00.538Z,9.3
2023-03-31T03:49:00.525Z,9.3
2023-03-31T03:50:01.737Z,9.3
2023-03-31T03:51:00.781Z,9.3
2023-03-31T03:52:00.530Z,10.6
2023-03-31T03:53:00.503Z,10.6
2023-03-31T03:54:00.561Z,10.6
2023-03-31T03:55:00.521Z,10.6
2023-03-31T03:56:00.514Z,10.6
2023-03-31T03:57:00.600Z,13.1
2023-03-31T03:58:00.545Z,13.1
2023-03-31T03:59:00.583Z,13.1
2023-03-31T04:00:00.577Z,13.1
2023-03-31T04:01:00.557Z,13.1
2023-03-31T04:02:00.565Z,22.8
2023-03-31T04:03:01.143Z,22.8
2023-03-31T04:04:00.522Z,22.8
2023-03-31T04:05:00.535Z,22.8
2023-03-31T04:06:00.520Z,22.8
2023-03-31T04:07:00.632Z,14.2
2023-03-31T04:08:00.503Z,14.2
2023-03-31T04:09:00.593Z,14.2
2023-03-31T04:10:00.555Z,14.2
2023-03-31T04:11:00.520Z,14.2
2023-03-31T04:12:00.504Z,12.1
2023-03-31T04:13:00.879Z,12.1
2023-03-31T04:14:00.832Z,12.1
2023-03-31T04:15:01.187Z,12.1
2023-03-31T04:16:00.508Z,12.1
2023-03-31T04:17:00.562Z,15.7
2023-03-31T04:18:00.524Z,15.7
2023-03-31T04:19:00.568Z,15.7
2023-03-31T04:20:01.467Z,15.7
2023-03-31T04:21:00.518Z,15.7
2023-03-31T04:22:00.522Z,11.9
2023-03-31T04:23:00.513Z,11.9
2023-03-31T04:24:01.082Z,11.9
2023-03-31T04:25:02.300Z,11.9
2023-03-31T04:26:00.489Z,11.9
2023-03-31T04:27:00.541Z,11.3
2023-03-31T04:28:00.528Z,11.3
2023-03-31T04:29:00.489Z,11.3
2023-03-31T04:30:00.783Z,11.3
2023-03-31T04:31:02.058Z,11.3
2023-03-31T04:32:00.549Z,12.6
2023-03-31T04:33:01.813Z,12.6
2023-03-31T04:34:00.490Z,12.6
2023-03-31T04:35:00.515Z,12.6
2023-03-31T04:36:00.552Z,12.6
2023-03-31T04:37:01.890Z,12.0
2023-03-31T04:38:00.518Z,12.0
2023-03-31T04:39:00.508Z,12.0
2023-03-31T04:40:01.136Z,12.0
2023-03-31T04:41:00.744Z,12.0
2023-03-31T04:42:00.574Z,10.4
2023-03-31T04:43:00.558Z,10.4
2023-03-31T04:44:00.491Z,10.4
2023-03-31T04:45:00.878Z,10.4
2023-03-31T04:46:00.540Z,10.4
2023-03-31T04:47:00.607Z,9.6
2023-03-31T04:48:00.527Z,9.6
2023-03-31T04:49:00.923Z,9.6
2023-03-31T04:50:00.516Z,9.6
2023-03-31T04:51:00.953Z,9.6
2023-03-31T04:52:00.515Z,8.7
2023-03-31T04:53:01.090Z,8.7
2023-03-31T04:54:00.554Z,8.7
2023-03-31T04:55:00.544Z,8.7
2023-03-31T04:56:00.745Z,8.7
2023-03-31T04:57:00.550Z,7.6
2023-03-31T04:58:00.694Z,7.6
2023-03-31T04:59:00.589Z,7.6
2023-03-31T05:00:00.506Z,7.6
2023-03-31T05:01:00.523Z,7.6
2023-03-31T05:02:00.542Z,7.1
2023-03-31T05:03:00.613Z,7.1
2023-03-31T05:04:00.999Z,7.1
2023-03-31T05:05:00.569Z,7.1
2023-03-31T05:06:00.610Z,7.1
2023-03-31T05:07:00.505Z,7.0
2023-03-31T05:08:01.434Z,7.0
2023-03-31T05:09:00.509Z,7.0
2023-03-31T05:10:00.606Z,7.0
2023-03-31T05:11:01.916Z,7.0
2023-03-31T05:12:00.498Z,6.4
2023-03-31T05:13:00.525Z,6.4
2023-03-31T05:14:00.512Z,6.4
2023-03-31T05:15:00.935Z,6.4
2023-03-31T05:16:11.760Z,6.4
2023-03-31T05:17:00.530Z,6.4
2023-03-31T05:18:00.549Z,6.4
2023-03-31T05:19:00.543Z,6.4
2023-03-31T05:20:00.586Z,6.4
2023-03-31T05:21:09.947Z,6.4
2023-03-31T05:22:00.529Z,6.7
2023-03-31T05:23:00.520Z,6.7
2023-03-31T05:24:00.502Z,6.7
2023-03-31T05:25:00.685Z,6.7
2023-03-31T05:26:00.529Z,6.7
2023-03-31T05:27:00.951Z,6.7
2023-03-31T05:28:00.902Z,6.7
2023-03-31T05:29:00.516Z,6.7
2023-03-31T05:30:02.362Z,6.7
2023-03-31T05:31:02.198Z,6.7
2023-03-31T05:32:00.557Z,6.3
2023-03-31T05:33:00.570Z,6.3
2023-03-31T05:34:00.514Z,6.3
2023-03-31T05:35:00.553Z,6.3
2023-03-31T05:36:00.612Z,6.3
2023-03-31T05:37:00.505Z,6.6
2023-03-31T05:38:00.529Z,6.6
2023-03-31T05:39:00.528Z,6.6
2023-03-31T05:40:00.665Z,6.6
2023-03-31T05:41:00.517Z,6.6
2023-03-31T05:42:00.642Z,5.9
2023-03-31T05:43:00.507Z,5.9
2023-03-31T05:44:00.598Z,5.9
2023-03-31T05:45:00.516Z,5.9
2023-03-31T05:46:01.328Z,5.9
2023-03-31T05:47:00.504Z,5.9
2023-03-31T05:48:00.548Z,5.9
2023-03-31T05:49:00.534Z,5.9
2023-03-31T05:50:00.564Z,5.9
2023-03-31T05:51:00.853Z,5.9
2023-03-31T05:52:00.670Z,6.1
2023-03-31T05:53:00.499Z,6.1
2023-03-31T05:54:00.528Z,6.1
2023-03-31T05:55:00.599Z,6.1
2023-03-31T05:56:03.279Z,6.1
2023-03-31T05:57:00.624Z,6.2
2023-03-31T05:58:00.574Z,6.2
2023-03-31T05:59:00.526Z,6.2
2023-03-31T06:00:00.559Z,6.2
2023-03-31T06:01:01.790Z,6.2
2023-03-31T06:02:01.260Z,6.5
2023-03-31T06:03:00.659Z,6.5
2023-03-31T06:04:00.604Z,6.5
2023-03-31T06:05:00.538Z,6.5
2023-03-31T06:06:01.100Z,6.5
2023-03-31T06:07:00.549Z,6.1
2023-03-31T06:08:00.754Z,6.1
2023-03-31T06:09:00.741Z,6.1
2023-03-31T06:10:00.585Z,6.1
2023-03-31T06:11:04.796Z,6.1
2023-03-31T06:12:00.655Z,6.3
2023-03-31T06:13:00.508Z,6.3
2023-03-31T06:14:00.542Z,6.3
2023-03-31T06:15:00.521Z,6.3
2023-03-31T06:16:00.867Z,6.3
2023-03-31T06:17:00.503Z,6.0
2023-03-31T06:18:00.574Z,6.0
2023-03-31T06:19:00.549Z,6.0
2023-03-31T06:20:00.546Z,6.0
2023-03-31T06:21:01.000Z,6.0
2023-03-31T06:22:00.714Z,6.1
2023-03-31T06:23:00.510Z,6.1
2023-03-31T06:24:00.581Z,6.1
2023-03-31T06:25:00.644Z,6.1
2023-03-31T06:26:02.765Z,6.1
2023-03-31T06:27:00.529Z,6.1
2023-03-31T06:28:00.502Z,6.1
2023-03-31T06:29:00.506Z,6.1
2023-03-31T06:30:00.546Z,6.1
2023-03-31T06:31:03.506Z,6.1
2023-03-31T06:32:00.618Z,6.1
2023-03-31T06:33:00.603Z,6.1
2023-03-31T06:34:00.605Z,6.1
2023-03-31T06:35:00.543Z,6.1
2023-03-31T06:36:01.058Z,6.1
2023-03-31T06:37:00.555Z,6.3
2023-03-31T06:38:00.489Z,6.3
2023-03-31T06:39:00.515Z,6.3
2023-03-31T06:40:00.573Z,6.3
2023-03-31T06:41:01.048Z,6.3
2023-03-31T06:42:00.528Z,6.8
2023-03-31T06:43:00.517Z,6.8
2023-03-31T06:44:00.558Z,6.8
2023-03-31T06:45:00.527Z,6.8
2023-03-31T06:46:00.554Z,6.8
2023-03-31T06:47:00.533Z,6.7
2023-03-31T06:48:00.539Z,6.7
2023-03-31T06:49:00.522Z,6.7
2023-03-31T06:50:00.525Z,6.7
2023-03-31T06:51:02.432Z,6.7
2023-03-31T06:52:00.857Z,6.5
2023-03-31T06:53:00.507Z,6.5
2023-03-31T06:54:00.511Z,6.5
2023-03-31T06:55:00.770Z,6.5
2023-03-31T06:56:00.531Z,6.5
2023-03-31T06:57:00.567Z,6.1
2023-03-31T06:58:01.917Z,6.1
2023-03-31T06:59:00.499Z,6.1
2023-03-31T07:00:00.516Z,6.1
2023-03-31T07:01:03.816Z,6.1
2023-03-31T07:02:00.568Z,5.9
2023-03-31T07:03:00.597Z,5.9
2023-03-31T07:04:00.521Z,5.9
2023-03-31T07:05:00.555Z,5.9
2023-03-31T07:06:00.524Z,5.9
2023-03-31T07:07:00.541Z,5.9
2023-03-31T07:08:00.579Z,5.9
2023-03-31T07:09:00.511Z,5.9
2023-03-31T07:10:00.546Z,5.9
2023-03-31T07:11:01.029Z,5.9
2023-03-31T07:12:00.560Z,5.9
2023-03-31T07:13:00.511Z,5.9
2023-03-31T07:14:00.508Z,5.9
2023-03-31T07:15:00.581Z,5.9
2023-03-31T07:16:00.596Z,5.9
2023-03-31T07:17:00.878Z,6.1
2023-03-31T07:18:00.530Z,6.1
2023-03-31T07:19:00.817Z,6.1
2023-03-31T07:20:00.505Z,6.1
2023-03-31T07:21:00.954Z,6.1
2023-03-31T07:22:00.507Z,6.0
2023-03-31T07:23:03.797Z,6.0
2023-03-31T07:24:00.492Z,6.0
2023-03-31T07:25:00.622Z,6.0
2023-03-31T07:26:00.539Z,6.0
2023-03-31T07:27:00.573Z,7.3
2023-03-31T07:28:00.691Z,7.3
2023-03-31T07:29:00.501Z,7.3
2023-03-31T07:30:01.137Z,7.3
2023-03-31T07:31:00.515Z,7.3
2023-03-31T07:32:00.561Z,6.1
2023-03-31T07:33:00.687Z,6.1
2023-03-31T07:34:02.300Z,6.1
2023-03-31T07:35:00.518Z,6.1
2023-03-31T07:36:11.861Z,6.1
2023-03-31T07:37:00.512Z,6.9
2023-03-31T07:38:00.493Z,6.9
2023-03-31T07:39:00.517Z,6.9
2023-03-31T07:40:00.548Z,6.9
2023-03-31T07:41:08.356Z,6.9
2023-03-31T07:42:00.512Z,6.8
2023-03-31T07:43:00.564Z,6.8
2023-03-31T07:44:01.051Z,6.8
2023-03-31T07:45:00.821Z,6.8
2023-03-31T07:46:00.573Z,6.8
2023-03-31T07:47:00.841Z,9.2
2023-03-31T07:48:00.603Z,9.2
2023-03-31T07:49:00.533Z,9.2
2023-03-31T07:50:00.590Z,9.2
2023-03-31T07:51:00.532Z,9.2
2023-03-31T07:52:01.430Z,6.6
2023-03-31T07:53:00.624Z,6.6
2023-03-31T07:54:00.495Z,6.6
2023-03-31T07:55:00.710Z,6.6
2023-03-31T07:56:00.569Z,6.6
2023-03-31T07:57:00.855Z,7.4
2023-03-31T07:58:00.540Z,7.4
2023-03-31T07:59:00.484Z,7.4
2023-03-31T08:00:00.787Z,7.4
2023-03-31T08:01:00.877Z,7.4
2023-03-31T08:02:00.567Z,7.0
2023-03-31T08:03:00.507Z,7.0
2023-03-31T08:04:00.550Z,7.0
2023-03-31T08:05:00.746Z,7.0
2023-03-31T08:06:00.560Z,7.0
2023-03-31T08:07:00.519Z,6.8
2023-03-31T08:08:00.655Z,6.8
2023-03-31T08:09:00.532Z,6.8
2023-03-31T08:10:03.936Z,6.8
2023-03-31T08:11:00.504Z,6.8
2023-03-31T08:12:00.980Z,6.7
2023-03-31T08:13:00.510Z,6.7
2023-03-31T08:14:00.556Z,6.7
2023-03-31T08:15:00.534Z,6.7
2023-03-31T08:16:00.818Z,6.7
2023-03-31T08:17:00.511Z,6.7
2023-03-31T08:18:01.892Z,6.7
2023-03-31T08:19:00.785Z,6.7
2023-03-31T08:20:04.511Z,6.7
2023-03-31T08:21:00.514Z,6.7
2023-03-31T08:22:00.489Z,7.1
2023-03-31T08:23:00.495Z,7.1
2023-03-31T08:24:00.522Z,7.1
2023-03-31T08:25:00.637Z,7.1
2023-03-31T08:26:17.338Z,7.1
2023-03-31T08:27:00.549Z,7.2
2023-03-31T08:28:00.490Z,7.2
2023-03-31T08:29:00.510Z,7.2
2023-03-31T08:30:00.564Z,7.2
2023-03-31T08:31:03.828Z,7.2
2023-03-31T08:32:00.556Z,7.3
2023-03-31T08:33:00.633Z,7.3
2023-03-31T08:34:00.614Z,7.3
2023-03-31T08:35:00.896Z,7.3
2023-03-31T08:36:01.357Z,7.3
2023-03-31T08:37:00.515Z,7.3
2023-03-31T08:38:00.572Z,7.3
2023-03-31T08:39:00.521Z,7.3
2023-03-31T08:40:00.851Z,7.3
2023-03-31T08:41:01.676Z,7.3
2023-03-31T08:42:11.003Z,7.6
2023-03-31T08:43:09.184Z,7.6
2023-03-31T08:44:07.525Z,7.6
2023-03-31T08:45:10.005Z,7.6
2023-03-31T08:46:02.047Z,7.6
2023-03-31T08:47:02.586Z,7.0
2023-03-31T08:48:13.821Z,7.0
2023-03-31T08:49:03.283Z,7.0
2023-03-31T08:50:06.713Z,7.0
2023-03-31T08:51:07.041Z,7.0
2023-03-31T08:52:06.553Z,6.5
2023-03-31T08:53:11.510Z,6.5
2023-03-31T08:54:03.270Z,6.5
2023-03-31T08:55:06.044Z,6.5
2023-03-31T08:56:04.927Z,6.5
2023-03-31T08:57:03.529Z,6.1
2023-03-31T08:58:20.446Z,6.1
2023-03-31T08:59:00.583Z,6.1
2023-03-31T09:00:00.584Z,6.1
2023-03-31T09:01:10.601Z,6.1
2023-03-31T09:02:09.733Z,5.9
2023-03-31T09:03:07.416Z,5.9
2023-03-31T09:04:12.834Z,5.9
2023-03-31T09:05:13.715Z,5.9
2023-03-31T09:06:07.416Z,5.9
2023-03-31T09:07:09.582Z,6.1
2023-03-31T09:08:08.902Z,6.1
2023-03-31T09:09:02.258Z,6.1
2023-03-31T09:10:06.112Z,6.1
2023-03-31T09:11:08.845Z,6.1
2023-03-31T09:12:08.238Z,6.5
2023-03-31T09:13:03.775Z,6.5
2023-03-31T09:14:10.484Z,6.5
2023-03-31T09:15:05.402Z,6.5
2023-03-31T09:16:04.805Z,6.5
2023-03-31T09:17:15.242Z,6.1
2023-03-31T09:18:15.395Z,6.1
2023-03-31T09:19:01.489Z,6.1
2023-03-31T09:20:11.278Z,6.1
2023-03-31T09:21:11.403Z,6.1
2023-03-31T09:22:03.420Z,5.8
2023-03-31T09:23:18.752Z,5.8
2023-03-31T09:24:09.598Z,5.8
2023-03-31T09:25:09.213Z,5.8
2023-03-31T09:26:03.129Z,5.8
2023-03-31T09:27:03.930Z,6.1
2023-03-31T09:28:03.526Z,6.1
2023-03-31T09:29:04.767Z,6.1
2023-03-31T09:30:04.297Z,6.1
2023-03-31T09:31:07.385Z,6.1
2023-03-31T09:32:05.623Z,5.5
2023-03-31T09:33:13.752Z,5.5
2023-03-31T09:34:12.297Z,5.5
2023-03-31T09:35:17.802Z,5.5
2023-03-31T09:36:07.893Z,5.5
2023-03-31T09:37:00.511Z,5.1
2023-03-31T09:38:00.531Z,5.1
2023-03-31T09:39:00.522Z,5.1
2023-03-31T09:40:11.237Z,5.1
2023-03-31T09:41:02.159Z,5.1
2023-03-31T09:42:00.629Z,5.8
2023-03-31T09:43:04.785Z,5.8
2023-03-31T09:44:00.556Z,5.8
2023-03-31T09:45:00.911Z,5.8
2023-03-31T09:46:09.590Z,5.8
2023-03-31T09:47:01.613Z,5.0
2023-03-31T09:48:03.914Z,5.0
2023-03-31T09:49:06.354Z,5.0
2023-03-31T09:50:00.585Z,5.0
2023-03-31T09:51:05.320Z,5.0
2023-03-31T09:52:04.060Z,6.0
2023-03-31T09:53:04.528Z,6.0
2023-03-31T09:54:09.354Z,6.0
2023-03-31T09:55:02.854Z,6.0
2023-03-31T09:56:02.972Z,6.0
2023-03-31T09:57:00.588Z,5.2
2023-03-31T09:58:00.596Z,5.2
2023-03-31T09:59:01.871Z,5.2
2023-03-31T10:00:03.778Z,5.2
2023-03-31T10:01:05.257Z,5.2
2023-03-31T10:02:13.392Z,4.8
2023-03-31T10:03:03.155Z,4.8
2023-03-31T10:04:00.556Z,4.8
2023-03-31T10:05:02.089Z,4.8
2023-03-31T10:06:00.899Z,4.8
2023-03-31T10:07:03.674Z,5.5
2023-03-31T10:08:10.486Z,5.5
2023-03-31T10:09:02.350Z,5.5
2023-03-31T10:10:01.218Z,5.5
2023-03-31T10:11:00.483Z,5.5
2023-03-31T10:12:05.272Z,5.4
2023-03-31T10:13:08.360Z,5.4
2023-03-31T10:14:05.608Z,5.4
2023-03-31T10:15:12.728Z,5.4
2023-03-31T10:16:03.099Z,5.4
2023-03-31T10:17:04.371Z,5.3
2023-03-31T10:18:00.541Z,5.3
2023-03-31T10:19:12.864Z,5.3
2023-03-31T10:20:14.896Z,5.3
2023-03-31T10:21:02.828Z,5.3
2023-03-31T10:22:05.072Z,5.7
2023-03-31T10:23:05.325Z,5.7
2023-03-31T10:24:00.504Z,5.7
2023-03-31T10:25:15.759Z,5.7
2023-03-31T10:26:02.784Z,5.7
2023-03-31T10:27:00.564Z,5.4
2023-03-31T10:28:01.712Z,5.4
2023-03-31T10:29:00.770Z,5.4
2023-03-31T10:30:03.772Z,5.4
2023-03-31T10:31:01.373Z,5.4
2023-03-31T10:32:03.983Z,4.8
2023-03-31T10:33:15.065Z,4.8
2023-03-31T10:34:05.506Z,4.8
2023-03-31T10:35:07.605Z,4.8
2023-03-31T10:36:06.911Z,4.8
2023-03-31T10:37:03.800Z,4.7
2023-03-31T10:38:06.555Z,4.7
2023-03-31T10:39:06.144Z,4.7
2023-03-31T10:40:04.351Z,4.7
2023-03-31T10:41:01.050Z,4.7
2023-03-31T10:42:00.569Z,4.3
2023-03-31T10:43:15.346Z,4.3
2023-03-31T10:44:02.858Z,4.3
2023-03-31T10:45:11.522Z,4.3
2023-03-31T10:46:00.789Z,4.3
2023-03-31T10:47:15.961Z,4.8
2023-03-31T10:48:00.536Z,4.8
2023-03-31T10:49:22.895Z,4.8
2023-03-31T10:50:03.978Z,4.8
2023-03-31T10:51:14.926Z,4.8
2023-03-31T10:52:00.488Z,4.5
2023-03-31T10:53:04.257Z,4.5
2023-03-31T10:54:00.850Z,4.5
2023-03-31T10:55:00.512Z,4.5
2023-03-31T10:56:20.406Z,4.5
2023-03-31T10:57:01.789Z,4.7
2023-03-31T10:58:15.218Z,4.7
2023-03-31T10:59:11.480Z,4.7
2023-03-31T11:00:12.846Z,4.7
2023-03-31T11:01:16.958Z,4.7
2023-03-31T11:02:20.448Z,4.5
2023-03-31T11:03:13.970Z,4.5
2023-03-31T11:04:20.462Z,4.5
2023-03-31T11:05:20.451Z,4.5
2023-03-31T11:06:12.336Z,4.5
2023-03-31T11:07:15.804Z,4.3
2023-03-31T11:08:20.137Z,4.3
2023-03-31T11:09:10.440Z,4.3
2023-03-31T11:10:13.734Z,4.3
2023-03-31T11:11:09.735Z,4.3
2023-03-31T11:12:15.939Z,4.2
2023-03-31T11:13:07.874Z,4.2
2023-03-31T11:14:11.452Z,4.2
2023-03-31T11:15:07.957Z,4.2
2023-03-31T11:16:02.782Z,4.2
2023-03-31T11:17:11.938Z,4.5
2023-03-31T11:18:12.233Z,4.5
2023-03-31T11:19:18.311Z,4.5
2023-03-31T11:20:15.774Z,4.5
2023-03-31T11:21:13.746Z,4.5
2023-03-31T11:22:11.572Z,4.5
2023-03-31T11:23:09.424Z,4.5
2023-03-31T11:24:20.414Z,4.5
2023-03-31T11:25:15.237Z,4.5
2023-03-31T11:26:09.148Z,4.5
2023-03-31T11:27:11.484Z,4.2
2023-03-31T11:28:03.749Z,4.2
2023-03-31T11:29:20.412Z,4.2
2023-03-31T11:30:10.450Z,4.2
2023-03-31T11:31:10.448Z,4.2
2023-03-31T11:32:20.498Z,4.1
2023-03-31T11:33:20.274Z,4.1
2023-03-31T11:34:20.412Z,4.1
2023-03-31T11:35:17.447Z,4.1
2023-03-31T11:36:10.473Z,4.1
2023-03-31T11:37:20.488Z,4.2
2023-03-31T11:38:14.445Z,4.2
2023-03-31T11:39:14.072Z,4.2
2023-03-31T11:40:05.222Z,4.2
2023-03-31T11:41:07.394Z,4.2
2023-03-31T11:42:07.942Z,4.3
2023-03-31T11:43:06.556Z,4.3
2023-03-31T11:44:04.449Z,4.3
2023-03-31T11:45:10.027Z,4.3
2023-03-31T11:46:06.882Z,4.3
2023-03-31T11:47:05.026Z,4.7
2023-03-31T11:48:07.747Z,4.7
2023-03-31T11:49:05.465Z,4.7
2023-03-31T11:50:06.162Z,4.7
2023-03-31T11:51:03.836Z,4.7
2023-03-31T11:52:12.918Z,4.8
2023-03-31T11:53:06.847Z,4.8
2023-03-31T11:54:03.227Z,4.8
2023-03-31T11:55:13.953Z,4.8
2023-03-31T11:56:02.241Z,4.8
2023-03-31T11:57:08.636Z,4.7
2023-03-31T11:58:05.902Z,4.7
2023-03-31T11:59:02.068Z,4.7
2023-03-31T12:00:15.098Z,4.7
2023-03-31T12:01:03.853Z,4.7
2023-03-31T12:02:14.215Z,6.1
2023-03-31T12:03:13.966Z,6.1
2023-03-31T12:04:05.826Z,6.1
2023-03-31T12:05:02.673Z,6.1
2023-03-31T12:06:05.056Z,6.1
2023-03-31T12:07:09.939Z,4.6
2023-03-31T12:08:09.377Z,4.6
2023-03-31T12:09:12.874Z,4.6
2023-03-31T12:10:16.540Z,4.6
2023-03-31T12:11:14.068Z,4.6
2023-03-31T12:12:09.323Z,4.6
2023-03-31T12:13:12.902Z,4.6
2023-03-31T12:14:20.435Z,4.6
2023-03-31T12:15:11.692Z,4.6
2023-03-31T12:16:16.143Z,4.6
2023-03-31T12:17:09.095Z,4.1
2023-03-31T12:18:13.904Z,4.1
2023-03-31T12:19:10.529Z,4.1
2023-03-31T12:20:04.376Z,4.1
2023-03-31T12:21:03.375Z,4.1
2023-03-31T12:22:09.557Z,4.3
2023-03-31T12:23:04.793Z,4.3
2023-03-31T12:24:00.593Z,4.3
2023-03-31T12:25:00.678Z,4.3
2023-03-31T12:26:05.992Z,4.3
2023-03-31T12:27:17.992Z,4.1
2023-03-31T12:28:02.198Z,4.1
2023-03-31T12:29:12.192Z,4.1
2023-03-31T12:30:05.541Z,4.1
2023-03-31T12:31:03.984Z,4.1
2023-03-31T12:32:06.782Z,4.3
2023-03-31T12:33:11.255Z,4.3
2023-03-31T12:34:07.656Z,4.3
2023-03-31T12:35:07.343Z,4.3
2023-03-31T12:36:19.277Z,4.3
2023-03-31T12:37:15.933Z,3.8
2023-03-31T12:38:12.854Z,3.8
2023-03-31T12:39:19.311Z,3.8
2023-03-31T12:40:20.453Z,3.8
2023-03-31T12:41:11.452Z,3.8
2023-03-31T12:42:10.462Z,3.9
2023-03-31T12:43:19.152Z,3.9
2023-03-31T12:44:17.852Z,3.9
2023-03-31T12:45:10.507Z,3.9
2023-03-31T12:46:18.102Z,3.9
2023-03-31T12:47:20.460Z,3.8
2023-03-31T12:48:20.494Z,3.8
2023-03-31T12:49:14.719Z,3.8
2023-03-31T12:50:20.412Z,3.8
2023-03-31T12:51:08.696Z,3.8
2023-03-31T12:52:06.220Z,3.8
2023-03-31T12:53:20.432Z,3.8
2023-03-31T12:54:09.160Z,3.8
2023-03-31T12:55:16.997Z,3.8
2023-03-31T12:56:00.820Z,3.8
2023-03-31T12:57:00.549Z,3.6
2023-03-31T12:58:20.404Z,3.6
2023-03-31T12:59:20.517Z,3.6
2023-03-31T13:00:19.696Z,3.6
2023-03-31T13:01:02.383Z,3.6
2023-03-31T13:02:13.772Z,4.0
2023-03-31T13:03:20.471Z,4.0
2023-03-31T13:04:15.363Z,4.0
2023-03-31T13:05:20.457Z,4.0
2023-03-31T13:06:02.417Z,4.0
2023-03-31T13:07:00.514Z,4.4
2023-03-31T13:08:00.762Z,4.4
2023-03-31T13:09:03.516Z,4.4
2023-03-31T13:10:11.638Z,4.4
2023-03-31T13:11:00.652Z,4.4
2023-03-31T13:12:15.303Z,5.9
2023-03-31T13:13:05.296Z,5.9
2023-03-31T13:14:04.444Z,5.9
2023-03-31T13:15:03.477Z,5.9
2023-03-31T13:16:01.344Z,5.9
2023-03-31T13:17:20.407Z,4.3
2023-03-31T13:18:03.000Z,4.3
2023-03-31T13:19:00.646Z,4.3
2023-03-31T13:20:20.406Z,4.3
2023-03-31T13:22:04.109Z,4.1
2023-03-31T13:23:13.606Z,4.1
2023-03-31T13:24:00.967Z,4.1
2023-03-31T13:25:20.395Z,4.1
2023-03-31T13:26:01.008Z,4.1
2023-03-31T13:27:20.417Z,4.2
2023-03-31T13:28:14.630Z,4.2
2023-03-31T13:29:10.415Z,4.2
2023-03-31T13:30:00.583Z,4.2
2023-03-31T13:31:03.435Z,4.2
2023-03-31T13:32:00.539Z,4.2
2023-03-31T13:33:07.228Z,4.2
2023-03-31T13:34:01.686Z,4.2
2023-03-31T13:35:05.307Z,4.2
2023-03-31T13:36:13.765Z,4.2
2023-03-31T13:37:17.349Z,4.6
2023-03-31T13:38:12.861Z,4.6
2023-03-31T13:39:13.702Z,4.6
2023-03-31T13:40:11.445Z,4.6
2023-03-31T13:41:14.707Z,4.6
2023-03-31T13:42:20.383Z,4.6
2023-03-31T13:43:15.287Z,4.6
2023-03-31T13:44:20.374Z,4.6
2023-03-31T13:45:14.414Z,4.6